sensor_id;sensor_type;location;lat;lon;timestamp;P1;durP1;ratioP1;P2;durP2;ratioP2
66741;SDS011;53654;54.152;19.432;2023-07-31T00:00:57;4.70;;;4.30;;
66741;SDS011;53654;54.152;19.432;2023-07-31T00:03:27;4.50;;;4.10;;
66741;SDS011;53654;54.152;19.432;2023-07-31T00:05:55;4.80;;;4.30;;
66741;SDS011;53654;54.152;19.432;2023-07-31T00:08:23;4.90;;;4.40;;
66741;SDS011;53654;54.152;19.432;2023-07-31T00:10:52;4.50;;;4.10;;
66741;SDS011;53654;54.152;19.432;2023-07-31T00:13:20;4.10;;;3.70;;
66741;SDS011;53654;54.152;19.432;2023-07-31T00:15:48;4.40;;;4.00;;
66741;SDS011;53654;54.152;19.432;2023-07-31T00:18:16;4.60;;;4.00;;
66741;SDS011;53654;54.152;19.432;2023-07-31T00:20:45;5.00;;;4.50;;
66741;SDS011;53654;54.152;19.432;2023-07-31T00:23:13;5.20;;;4.70;;
66741;SDS011;53654;54.152;19.432;2023-07-31T00:25:41;4.90;;;4.40;;
66741;SDS011;53654;54.152;19.432;2023-07-31T00:28:09;5.00;;;4.60;;
66741;SDS011;53654;54.152;19.432;2023-07-31T00:30:39;4.50;;;4.10;;
66741;SDS011;53654;54.152;19.432;2023-07-31T00:33:07;4.70;;;4.30;;
66741;SDS011;53654;54.152;19.432;2023-07-31T00:35:37;4.40;;;4.00;;
66741;SDS011;53654;54.152;19.432;2023-07-31T00:38:05;4.40;;;4.10;;
66741;SDS011;53654;54.152;19.432;2023-07-31T00:40:36;4.90;;;4.50;;
66741;SDS011;53654;54.152;19.432;2023-07-31T00:43:08;5.50;;;4.60;;
66741;SDS011;53654;54.152;19.432;2023-07-31T00:45:36;5.30;;;4.80;;
66741;SDS011;53654;54.152;19.432;2023-07-31T00:48:04;5.20;;;4.80;;
66741;SDS011;53654;54.152;19.432;2023-07-31T00:50:36;5.90;;;5.40;;
66741;SDS011;53654;54.152;19.432;2023-07-31T00:53:04;5.70;;;5.10;;
66741;SDS011;53654;54.152;19.432;2023-07-31T00:55:33;5.90;;;5.40;;
66741;SDS011;53654;54.152;19.432;2023-07-31T00:58:02;5.50;;;5.10;;
66741;SDS011;53654;54.152;19.432;2023-07-31T01:00:30;7.50;;;6.00;;
66741;SDS011;53654;54.152;19.432;2023-07-31T01:02:57;6.60;;;6.00;;
66741;SDS011;53654;54.152;19.432;2023-07-31T01:11:14;7.30;;;6.60;;
66741;SDS011;53654;54.152;19.432;2023-07-31T01:13:45;7.20;;;6.50;;
66741;SDS011;53654;54.152;19.432;2023-07-31T01:16:13;7.50;;;6.80;;
66741;SDS011;53654;54.152;19.432;2023-07-31T01:18:42;9.50;;;6.70;;
66741;SDS011;53654;54.152;19.432;2023-07-31T01:21:19;7.70;;;7.00;;
66741;SDS011;53654;54.152;19.432;2023-07-31T01:32:50;7.70;;;7.00;;
66741;SDS011;53654;54.152;19.432;2023-07-31T01:35:21;8.50;;;7.10;;
66741;SDS011;53654;54.152;19.432;2023-07-31T01:37:52;7.90;;;6.30;;
66741;SDS011;53654;54.152;19.432;2023-07-31T01:40:21;7.80;;;6.20;;
66741;SDS011;53654;54.152;19.432;2023-07-31T01:42:50;9.40;;;6.70;;
66741;SDS011;53654;54.152;19.432;2023-07-31T01:45:18;7.50;;;6.60;;
66741;SDS011;53654;54.152;19.432;2023-07-31T01:47:46;7.90;;;6.30;;
66741;SDS011;53654;54.152;19.432;2023-07-31T01:50:14;6.40;;;5.80;;
66741;SDS011;53654;54.152;19.432;2023-07-31T01:52:42;6.70;;;5.70;;
66741;SDS011;53654;54.152;19.432;2023-07-31T01:55:11;6.80;;;5.70;;
66741;SDS011;53654;54.152;19.432;2023-07-31T01:57:39;5.80;;;5.30;;
66741;SDS011;53654;54.152;19.432;2023-07-31T02:00:07;8.50;;;5.40;;
66741;SDS011;53654;54.152;19.432;2023-07-31T02:02:38;5.70;;;5.10;;
66741;SDS011;53654;54.152;19.432;2023-07-31T02:05:07;6.40;;;5.00;;
66741;SDS011;53654;54.152;19.432;2023-07-31T02:07:35;5.30;;;4.80;;
66741;SDS011;53654;54.152;19.432;2023-07-31T02:10:03;5.70;;;4.90;;
66741;SDS011;53654;54.152;19.432;2023-07-31T02:12:31;7.10;;;5.20;;
66741;SDS011;53654;54.152;19.432;2023-07-31T02:15:02;6.20;;;5.20;;
66741;SDS011;53654;54.152;19.432;2023-07-31T02:17:30;7.40;;;5.40;;
66741;SDS011;53654;54.152;19.432;2023-07-31T02:19:58;5.80;;;4.80;;
66741;SDS011;53654;54.152;19.432;2023-07-31T02:22:26;5.70;;;4.90;;
66741;SDS011;53654;54.152;19.432;2023-07-31T02:24:55;5.80;;;4.80;;
66741;SDS011;53654;54.152;19.432;2023-07-31T02:27:23;6.90;;;5.30;;
66741;SDS011;53654;54.152;19.432;2023-07-31T02:29:55;5.80;;;5.20;;
66741;SDS011;53654;54.152;19.432;2023-07-31T02:32:23;6.90;;;5.50;;
66741;SDS011;53654;54.152;19.432;2023-07-31T02:34:51;6.90;;;5.70;;
66741;SDS011;53654;54.152;19.432;2023-07-31T02:37:19;8.00;;;5.70;;
66741;SDS011;53654;54.152;19.432;2023-07-31T02:39:47;6.60;;;6.00;;
66741;SDS011;53654;54.152;19.432;2023-07-31T02:42:15;7.40;;;6.10;;
66741;SDS011;53654;54.152;19.432;2023-07-31T02:44:43;7.20;;;6.20;;
66741;SDS011;53654;54.152;19.432;2023-07-31T02:47:11;7.60;;;6.40;;
66741;SDS011;53654;54.152;19.432;2023-07-31T02:49:39;7.60;;;6.20;;
66741;SDS011;53654;54.152;19.432;2023-07-31T02:52:07;7.10;;;6.30;;
66741;SDS011;53654;54.152;19.432;2023-07-31T02:54:36;7.90;;;6.00;;
66741;SDS011;53654;54.152;19.432;2023-07-31T02:57:04;7.60;;;6.30;;
66741;SDS011;53654;54.152;19.432;2023-07-31T02:59:32;6.80;;;6.10;;
66741;SDS011;53654;54.152;19.432;2023-07-31T03:02:01;7.00;;;6.30;;
66741;SDS011;53654;54.152;19.432;2023-07-31T03:04:29;6.70;;;6.10;;
66741;SDS011;53654;54.152;19.432;2023-07-31T03:06:57;7.10;;;6.40;;
66741;SDS011;53654;54.152;19.432;2023-07-31T03:09:25;7.10;;;6.40;;
66741;SDS011;53654;54.152;19.432;2023-07-31T03:11:53;7.00;;;6.30;;
66741;SDS011;53654;54.152;19.432;2023-07-31T03:14:21;7.10;;;6.40;;
66741;SDS011;53654;54.152;19.432;2023-07-31T03:16:49;7.90;;;6.20;;
66741;SDS011;53654;54.152;19.432;2023-07-31T03:19:17;7.80;;;7.00;;
66741;SDS011;53654;54.152;19.432;2023-07-31T03:21:45;9.20;;;7.00;;
66741;SDS011;53654;54.152;19.432;2023-07-31T03:24:13;8.40;;;7.30;;
66741;SDS011;53654;54.152;19.432;2023-07-31T03:26:41;8.70;;;7.60;;
66741;SDS011;53654;54.152;19.432;2023-07-31T03:29:09;9.00;;;7.00;;
66741;SDS011;53654;54.152;19.432;2023-07-31T03:31:38;8.20;;;6.90;;
66741;SDS011;53654;54.152;19.432;2023-07-31T03:34:06;9.10;;;6.60;;
66741;SDS011;53654;54.152;19.432;2023-07-31T03:36:34;7.40;;;6.70;;
66741;SDS011;53654;54.152;19.432;2023-07-31T03:39:02;8.70;;;6.80;;
66741;SDS011;53654;54.152;19.432;2023-07-31T03:41:31;7.70;;;6.40;;
66741;SDS011;53654;54.152;19.432;2023-07-31T03:43:59;10.50;;;6.20;;
66741;SDS011;53654;54.152;19.432;2023-07-31T03:46:27;8.40;;;6.50;;
66741;SDS011;53654;54.152;19.432;2023-07-31T03:48:55;7.00;;;6.20;;
66741;SDS011;53654;54.152;19.432;2023-07-31T03:51:23;7.80;;;5.70;;
66741;SDS011;53654;54.152;19.432;2023-07-31T03:53:51;7.70;;;5.60;;
66741;SDS011;53654;54.152;19.432;2023-07-31T03:56:19;6.40;;;4.60;;
66741;SDS011;53654;54.152;19.432;2023-07-31T03:58:48;5.50;;;4.80;;
66741;SDS011;53654;54.152;19.432;2023-07-31T04:01:16;6.60;;;4.40;;
66741;SDS011;53654;54.152;19.432;2023-07-31T04:03:44;6.80;;;4.60;;
66741;SDS011;53654;54.152;19.432;2023-07-31T04:06:12;5.10;;;4.30;;
66741;SDS011;53654;54.152;19.432;2023-07-31T04:08:40;6.40;;;4.30;;
66741;SDS011;53654;54.152;19.432;2023-07-31T04:11:08;5.10;;;4.20;;
66741;SDS011;53654;54.152;19.432;2023-07-31T04:13:36;4.40;;;3.70;;
66741;SDS011;53654;54.152;19.432;2023-07-31T04:16:04;5.50;;;4.00;;
66741;SDS011;53654;54.152;19.432;2023-07-31T04:18:32;4.60;;;3.70;;
66741;SDS011;53654;54.152;19.432;2023-07-31T04:21:00;4.30;;;3.80;;
66741;SDS011;53654;54.152;19.432;2023-07-31T04:23:30;3.70;;;3.40;;
66741;SDS011;53654;54.152;19.432;2023-07-31T04:25:58;5.10;;;3.00;;
66741;SDS011;53654;54.152;19.432;2023-07-31T04:28:26;5.10;;;3.00;;
66741;SDS011;53654;54.152;19.432;2023-07-31T04:30:54;3.10;;;2.90;;
66741;SDS011;53654;54.152;19.432;2023-07-31T04:33:22;3.30;;;2.70;;
66741;SDS011;53654;54.152;19.432;2023-07-31T04:35:51;3.80;;;2.80;;
66741;SDS011;53654;54.152;19.432;2023-07-31T04:38:21;3.70;;;2.40;;
66741;SDS011;53654;54.152;19.432;2023-07-31T04:40:49;3.00;;;2.30;;
66741;SDS011;53654;54.152;19.432;2023-07-31T04:43:18;4.10;;;2.30;;
66741;SDS011;53654;54.152;19.432;2023-07-31T04:45:46;3.90;;;2.70;;
66741;SDS011;53654;54.152;19.432;2023-07-31T04:48:15;4.10;;;2.40;;
66741;SDS011;53654;54.152;19.432;2023-07-31T04:50:43;2.90;;;2.30;;
66741;SDS011;53654;54.152;19.432;2023-07-31T04:53:11;2.40;;;2.20;;
66741;SDS011;53654;54.152;19.432;2023-07-31T04:55:39;4.00;;;2.40;;
66741;SDS011;53654;54.152;19.432;2023-07-31T04:58:08;3.40;;;2.50;;
66741;SDS011;53654;54.152;19.432;2023-07-31T05:00:36;2.90;;;2.50;;
66741;SDS011;53654;54.152;19.432;2023-07-31T05:03:04;2.90;;;2.40;;
66741;SDS011;53654;54.152;19.432;2023-07-31T05:05:32;3.30;;;2.30;;
66741;SDS011;53654;54.152;19.432;2023-07-31T05:08:01;3.60;;;2.50;;
66741;SDS011;53654;54.152;19.432;2023-07-31T05:10:29;3.80;;;2.80;;
66741;SDS011;53654;54.152;19.432;2023-07-31T05:12:57;3.30;;;2.50;;
66741;SDS011;53654;54.152;19.432;2023-07-31T05:15:25;3.20;;;2.40;;
66741;SDS011;53654;54.152;19.432;2023-07-31T05:17:53;3.10;;;2.60;;
66741;SDS011;53654;54.152;19.432;2023-07-31T05:20:21;3.60;;;2.30;;
66741;SDS011;53654;54.152;19.432;2023-07-31T05:22:50;3.30;;;2.20;;
66741;SDS011;53654;54.152;19.432;2023-07-31T05:25:19;3.90;;;2.60;;
66741;SDS011;53654;54.152;19.432;2023-07-31T05:27:47;3.50;;;2.40;;
66741;SDS011;53654;54.152;19.432;2023-07-31T05:30:15;3.60;;;2.60;;
66741;SDS011;53654;54.152;19.432;2023-07-31T05:32:43;3.80;;;2.60;;
66741;SDS011;53654;54.152;19.432;2023-07-31T05:35:12;2.80;;;2.30;;
66741;SDS011;53654;54.152;19.432;2023-07-31T05:37:40;4.40;;;2.50;;
66741;SDS011;53654;54.152;19.432;2023-07-31T05:40:08;4.30;;;2.50;;
66741;SDS011;53654;54.152;19.432;2023-07-31T05:42:36;4.60;;;2.50;;
66741;SDS011;53654;54.152;19.432;2023-07-31T05:45:06;4.80;;;2.70;;
66741;SDS011;53654;54.152;19.432;2023-07-31T05:47:35;5.00;;;2.70;;
66741;SDS011;53654;54.152;19.432;2023-07-31T05:50:03;5.00;;;2.50;;
66741;SDS011;53654;54.152;19.432;2023-07-31T05:52:31;3.70;;;2.40;;
66741;SDS011;53654;54.152;19.432;2023-07-31T05:55:00;2.50;;;2.30;;
66741;SDS011;53654;54.152;19.432;2023-07-31T05:57:29;4.10;;;2.30;;
66741;SDS011;53654;54.152;19.432;2023-07-31T05:59:57;3.50;;;2.50;;
66741;SDS011;53654;54.152;19.432;2023-07-31T06:02:25;4.90;;;2.80;;
66741;SDS011;53654;54.152;19.432;2023-07-31T06:04:53;3.30;;;2.30;;
66741;SDS011;53654;54.152;19.432;2023-07-31T06:07:22;3.90;;;2.30;;
66741;SDS011;53654;54.152;19.432;2023-07-31T06:09:50;4.40;;;2.30;;
66741;SDS011;53654;54.152;19.432;2023-07-31T06:12:18;2.60;;;2.30;;
66741;SDS011;53654;54.152;19.432;2023-07-31T06:14:46;5.20;;;2.30;;
66741;SDS011;53654;54.152;19.432;2023-07-31T06:17:14;4.00;;;2.30;;
66741;SDS011;53654;54.152;19.432;2023-07-31T06:19:42;4.00;;;2.10;;
66741;SDS011;53654;54.152;19.432;2023-07-31T06:22:10;3.90;;;2.20;;
66741;SDS011;53654;54.152;19.432;2023-07-31T06:24:38;3.90;;;2.20;;
66741;SDS011;53654;54.152;19.432;2023-07-31T06:27:06;4.20;;;2.40;;
66741;SDS011;53654;54.152;19.432;2023-07-31T06:29:34;3.60;;;2.10;;
66741;SDS011;53654;54.152;19.432;2023-07-31T06:32:03;3.70;;;2.00;;
66741;SDS011;53654;54.152;19.432;2023-07-31T06:34:32;2.70;;;2.00;;
66741;SDS011;53654;54.152;19.432;2023-07-31T06:37:00;3.70;;;2.20;;
66741;SDS011;53654;54.152;19.432;2023-07-31T06:39:28;5.00;;;2.40;;
66741;SDS011;53654;54.152;19.432;2023-07-31T06:41:56;5.60;;;2.60;;
66741;SDS011;53654;54.152;19.432;2023-07-31T06:44:25;4.10;;;2.10;;
66741;SDS011;53654;54.152;19.432;2023-07-31T06:46:53;4.70;;;2.20;;
66741;SDS011;53654;54.152;19.432;2023-07-31T06:49:21;5.50;;;2.30;;
66741;SDS011;53654;54.152;19.432;2023-07-31T06:51:49;5.20;;;2.60;;
66741;SDS011;53654;54.152;19.432;2023-07-31T06:54:17;4.50;;;2.30;;
66741;SDS011;53654;54.152;19.432;2023-07-31T06:56:45;4.30;;;2.40;;
66741;SDS011;53654;54.152;19.432;2023-07-31T06:59:13;4.80;;;2.30;;
66741;SDS011;53654;54.152;19.432;2023-07-31T07:01:41;4.50;;;2.10;;
66741;SDS011;53654;54.152;19.432;2023-07-31T07:04:10;6.00;;;2.30;;
66741;SDS011;53654;54.152;19.432;2023-07-31T07:06:38;4.40;;;2.00;;
66741;SDS011;53654;54.152;19.432;2023-07-31T07:09:07;4.20;;;2.20;;
66741;SDS011;53654;54.152;19.432;2023-07-31T07:11:35;5.00;;;2.30;;
66741;SDS011;53654;54.152;19.432;2023-07-31T07:14:05;4.40;;;2.50;;
66741;SDS011;53654;54.152;19.432;2023-07-31T07:16:33;5.20;;;2.10;;
66741;SDS011;53654;54.152;19.432;2023-07-31T07:19:01;5.50;;;2.20;;
66741;SDS011;53654;54.152;19.432;2023-07-31T07:21:32;3.70;;;2.10;;
66741;SDS011;53654;54.152;19.432;2023-07-31T07:24:00;4.20;;;2.50;;
66741;SDS011;53654;54.152;19.432;2023-07-31T07:26:28;3.90;;;2.20;;
66741;SDS011;53654;54.152;19.432;2023-07-31T07:28:56;4.60;;;2.20;;
66741;SDS011;53654;54.152;19.432;2023-07-31T07:31:28;5.00;;;2.20;;
66741;SDS011;53654;54.152;19.432;2023-07-31T07:33:56;5.80;;;2.40;;
66741;SDS011;53654;54.152;19.432;2023-07-31T07:36:25;3.40;;;2.20;;
66741;SDS011;53654;54.152;19.432;2023-07-31T07:38:55;6.20;;;2.40;;
66741;SDS011;53654;54.152;19.432;2023-07-31T07:41:24;5.80;;;2.50;;
66741;SDS011;53654;54.152;19.432;2023-07-31T07:43:52;4.40;;;2.40;;
66741;SDS011;53654;54.152;19.432;2023-07-31T07:46:20;5.20;;;2.20;;
66741;SDS011;53654;54.152;19.432;2023-07-31T07:48:49;4.40;;;2.30;;
66741;SDS011;53654;54.152;19.432;2023-07-31T07:51:17;5.10;;;2.50;;
66741;SDS011;53654;54.152;19.432;2023-07-31T07:53:45;5.00;;;2.50;;
66741;SDS011;53654;54.152;19.432;2023-07-31T07:56:14;4.90;;;2.40;;
66741;SDS011;53654;54.152;19.432;2023-07-31T07:58:42;4.60;;;2.30;;
66741;SDS011;53654;54.152;19.432;2023-07-31T08:01:10;3.80;;;2.30;;
66741;SDS011;53654;54.152;19.432;2023-07-31T08:03:38;3.80;;;2.10;;
66741;SDS011;53654;54.152;19.432;2023-07-31T08:06:07;3.30;;;2.10;;
66741;SDS011;53654;54.152;19.432;2023-07-31T08:08:37;5.80;;;2.30;;
66741;SDS011;53654;54.152;19.432;2023-07-31T08:11:05;4.50;;;2.30;;
66741;SDS011;53654;54.152;19.432;2023-07-31T08:13:34;3.20;;;1.90;;
66741;SDS011;53654;54.152;19.432;2023-07-31T08:16:06;4.00;;;2.30;;
66741;SDS011;53654;54.152;19.432;2023-07-31T08:18:35;5.30;;;2.10;;
66741;SDS011;53654;54.152;19.432;2023-07-31T08:21:03;5.40;;;2.10;;
66741;SDS011;53654;54.152;19.432;2023-07-31T08:23:32;4.90;;;2.30;;
66741;SDS011;53654;54.152;19.432;2023-07-31T08:26:00;4.50;;;2.10;;
66741;SDS011;53654;54.152;19.432;2023-07-31T08:28:28;4.10;;;2.10;;
66741;SDS011;53654;54.152;19.432;2023-07-31T08:30:56;4.80;;;2.10;;
66741;SDS011;53654;54.152;19.432;2023-07-31T08:33:24;5.20;;;1.90;;
66741;SDS011;53654;54.152;19.432;2023-07-31T08:35:53;5.10;;;2.20;;
66741;SDS011;53654;54.152;19.432;2023-07-31T08:38:21;4.40;;;2.20;;
66741;SDS011;53654;54.152;19.432;2023-07-31T08:40:49;3.40;;;1.90;;
66741;SDS011;53654;54.152;19.432;2023-07-31T08:43:17;4.50;;;2.20;;
66741;SDS011;53654;54.152;19.432;2023-07-31T08:45:47;5.40;;;2.40;;
66741;SDS011;53654;54.152;19.432;2023-07-31T08:48:16;6.50;;;2.40;;
66741;SDS011;53654;54.152;19.432;2023-07-31T08:50:45;5.60;;;2.40;;
66741;SDS011;53654;54.152;19.432;2023-07-31T08:53:13;5.20;;;2.00;;
66741;SDS011;53654;54.152;19.432;2023-07-31T08:55:41;3.30;;;1.90;;
66741;SDS011;53654;54.152;19.432;2023-07-31T08:58:10;5.70;;;2.00;;
66741;SDS011;53654;54.152;19.432;2023-07-31T09:00:41;5.30;;;2.10;;
66741;SDS011;53654;54.152;19.432;2023-07-31T09:05:45;3.40;;;1.90;;
66741;SDS011;53654;54.152;19.432;2023-07-31T09:08:15;4.50;;;2.00;;
66741;SDS011;53654;54.152;19.432;2023-07-31T09:10:47;4.80;;;2.10;;
66741;SDS011;53654;54.152;19.432;2023-07-31T09:13:17;4.40;;;2.00;;
66741;SDS011;53654;54.152;19.432;2023-07-31T09:15:46;3.90;;;1.80;;
66741;SDS011;53654;54.152;19.432;2023-07-31T09:18:14;4.60;;;1.80;;
66741;SDS011;53654;54.152;19.432;2023-07-31T09:20:46;4.40;;;1.90;;
66741;SDS011;53654;54.152;19.432;2023-07-31T09:23:40;4.00;;;1.90;;
66741;SDS011;53654;54.152;19.432;2023-07-31T09:26:10;3.10;;;1.60;;
66741;SDS011;53654;54.152;19.432;2023-07-31T09:28:38;3.60;;;1.70;;
66741;SDS011;53654;54.152;19.432;2023-07-31T09:31:06;3.70;;;1.70;;
66741;SDS011;53654;54.152;19.432;2023-07-31T09:33:35;6.10;;;1.80;;
66741;SDS011;53654;54.152;19.432;2023-07-31T09:36:23;2.50;;;1.70;;
66741;SDS011;53654;54.152;19.432;2023-07-31T09:38:52;1.90;;;1.50;;
66741;SDS011;53654;54.152;19.432;2023-07-31T09:41:20;3.40;;;1.80;;
66741;SDS011;53654;54.152;19.432;2023-07-31T09:43:53;3.50;;;1.60;;
66741;SDS011;53654;54.152;19.432;2023-07-31T09:46:22;3.00;;;1.80;;
66741;SDS011;53654;54.152;19.432;2023-07-31T09:48:50;3.90;;;1.70;;
66741;SDS011;53654;54.152;19.432;2023-07-31T09:51:26;4.90;;;2.00;;
66741;SDS011;53654;54.152;19.432;2023-07-31T09:53:58;5.30;;;2.10;;
66741;SDS011;53654;54.152;19.432;2023-07-31T09:56:43;4.20;;;1.90;;
66741;SDS011;53654;54.152;19.432;2023-07-31T09:59:17;2.60;;;1.90;;
66741;SDS011;53654;54.152;19.432;2023-07-31T10:01:51;4.90;;;1.90;;
66741;SDS011;53654;54.152;19.432;2023-07-31T10:04:27;3.70;;;1.70;;
66741;SDS011;53654;54.152;19.432;2023-07-31T10:06:56;3.50;;;1.60;;
66741;SDS011;53654;54.152;19.432;2023-07-31T10:09:29;4.10;;;1.80;;
66741;SDS011;53654;54.152;19.432;2023-07-31T10:12:00;3.80;;;1.90;;
66741;SDS011;53654;54.152;19.432;2023-07-31T10:14:32;3.00;;;1.90;;
66741;SDS011;53654;54.152;19.432;2023-07-31T10:17:01;2.90;;;1.70;;
66741;SDS011;53654;54.152;19.432;2023-07-31T10:19:32;3.70;;;1.80;;
66741;SDS011;53654;54.152;19.432;2023-07-31T10:22:02;4.00;;;1.60;;
66741;SDS011;53654;54.152;19.432;2023-07-31T10:24:31;2.70;;;1.60;;
66741;SDS011;53654;54.152;19.432;2023-07-31T10:27:08;3.60;;;1.70;;
66741;SDS011;53654;54.152;19.432;2023-07-31T10:29:41;3.50;;;1.90;;
66741;SDS011;53654;54.152;19.432;2023-07-31T10:32:11;3.90;;;1.80;;
66741;SDS011;53654;54.152;19.432;2023-07-31T10:34:39;4.20;;;2.10;;
66741;SDS011;53654;54.152;19.432;2023-07-31T10:37:25;3.20;;;1.60;;
66741;SDS011;53654;54.152;19.432;2023-07-31T10:39:56;2.50;;;1.50;;
66741;SDS011;53654;54.152;19.432;2023-07-31T10:42:32;3.90;;;1.80;;
66741;SDS011;53654;54.152;19.432;2023-07-31T10:47:59;2.90;;;1.60;;
66741;SDS011;53654;54.152;19.432;2023-07-31T10:50:38;2.20;;;1.60;;
66741;SDS011;53654;54.152;19.432;2023-07-31T10:53:31;1.90;;;1.50;;
66741;SDS011;53654;54.152;19.432;2023-07-31T10:56:03;1.80;;;1.40;;
66741;SDS011;53654;54.152;19.432;2023-07-31T10:58:33;3.50;;;1.70;;
66741;SDS011;53654;54.152;19.432;2023-07-31T11:01:03;2.40;;;1.70;;
66741;SDS011;53654;54.152;19.432;2023-07-31T11:03:49;3.20;;;1.70;;
66741;SDS011;53654;54.152;19.432;2023-07-31T11:06:21;2.50;;;1.80;;
66741;SDS011;53654;54.152;19.432;2023-07-31T11:08:50;2.00;;;1.40;;
66741;SDS011;53654;54.152;19.432;2023-07-31T11:11:19;3.30;;;1.70;;
66741;SDS011;53654;54.152;19.432;2023-07-31T11:13:49;2.90;;;1.70;;
66741;SDS011;53654;54.152;19.432;2023-07-31T11:16:24;2.60;;;1.80;;
66741;SDS011;53654;54.152;19.432;2023-07-31T11:18:53;3.10;;;2.50;;
66741;SDS011;53654;54.152;19.432;2023-07-31T11:21:24;2.70;;;1.70;;
66741;SDS011;53654;54.152;19.432;2023-07-31T11:23:53;3.80;;;1.80;;
66741;SDS011;53654;54.152;19.432;2023-07-31T11:26:28;2.60;;;1.70;;
66741;SDS011;53654;54.152;19.432;2023-07-31T11:28:58;3.30;;;1.60;;
66741;SDS011;53654;54.152;19.432;2023-07-31T11:31:26;3.00;;;1.70;;
66741;SDS011;53654;54.152;19.432;2023-07-31T11:34:05;4.30;;;1.80;;
66741;SDS011;53654;54.152;19.432;2023-07-31T11:36:35;2.80;;;2.00;;
66741;SDS011;53654;54.152;19.432;2023-07-31T11:39:05;3.10;;;2.00;;
66741;SDS011;53654;54.152;19.432;2023-07-31T11:41:35;2.50;;;1.80;;
66741;SDS011;53654;54.152;19.432;2023-07-31T11:44:03;3.20;;;1.60;;
66741;SDS011;53654;54.152;19.432;2023-07-31T11:46:51;4.80;;;2.70;;
66741;SDS011;53654;54.152;19.432;2023-07-31T11:49:21;2.90;;;2.00;;
66741;SDS011;53654;54.152;19.432;2023-07-31T11:51:49;2.20;;;1.70;;
66741;SDS011;53654;54.152;19.432;2023-07-31T11:54:18;2.70;;;1.90;;
66741;SDS011;53654;54.152;19.432;2023-07-31T11:56:46;3.50;;;1.60;;
66741;SDS011;53654;54.152;19.432;2023-07-31T11:59:15;3.40;;;1.80;;
66741;SDS011;53654;54.152;19.432;2023-07-31T12:01:44;2.70;;;1.80;;
66741;SDS011;53654;54.152;19.432;2023-07-31T12:04:14;5.10;;;2.40;;
66741;SDS011;53654;54.152;19.432;2023-07-31T12:06:42;2.40;;;1.70;;
66741;SDS011;53654;54.152;19.432;2023-07-31T12:09:11;3.00;;;1.80;;
66741;SDS011;53654;54.152;19.432;2023-07-31T12:11:43;3.30;;;2.00;;
66741;SDS011;53654;54.152;19.432;2023-07-31T12:14:21;3.30;;;1.80;;
66741;SDS011;53654;54.152;19.432;2023-07-31T12:16:54;4.60;;;2.00;;
66741;SDS011;53654;54.152;19.432;2023-07-31T12:19:27;4.10;;;1.80;;
66741;SDS011;53654;54.152;19.432;2023-07-31T12:21:59;4.50;;;2.00;;
66741;SDS011;53654;54.152;19.432;2023-07-31T12:24:28;4.00;;;2.20;;
66741;SDS011;53654;54.152;19.432;2023-07-31T12:26:56;3.90;;;1.80;;
66741;SDS011;53654;54.152;19.432;2023-07-31T12:29:33;3.10;;;1.70;;
66741;SDS011;53654;54.152;19.432;2023-07-31T12:32:21;2.90;;;1.70;;
66741;SDS011;53654;54.152;19.432;2023-07-31T12:34:50;2.90;;;1.90;;
66741;SDS011;53654;54.152;19.432;2023-07-31T12:37:20;4.00;;;2.00;;
66741;SDS011;53654;54.152;19.432;2023-07-31T12:39:49;2.70;;;2.00;;
66741;SDS011;53654;54.152;19.432;2023-07-31T12:42:17;3.30;;;2.20;;
66741;SDS011;53654;54.152;19.432;2023-07-31T12:44:46;3.90;;;2.00;;
66741;SDS011;53654;54.152;19.432;2023-07-31T12:47:14;4.30;;;2.00;;
66741;SDS011;53654;54.152;19.432;2023-07-31T12:49:43;3.40;;;1.90;;
66741;SDS011;53654;54.152;19.432;2023-07-31T12:52:11;4.40;;;1.80;;
66741;SDS011;53654;54.152;19.432;2023-07-31T12:54:39;3.90;;;1.90;;
66741;SDS011;53654;54.152;19.432;2023-07-31T12:57:07;4.70;;;1.90;;
66741;SDS011;53654;54.152;19.432;2023-07-31T12:59:35;2.80;;;2.10;;
66741;SDS011;53654;54.152;19.432;2023-07-31T13:02:03;3.90;;;1.90;;
66741;SDS011;53654;54.152;19.432;2023-07-31T13:04:32;4.40;;;2.10;;
66741;SDS011;53654;54.152;19.432;2023-07-31T13:07:00;3.60;;;2.60;;
66741;SDS011;53654;54.152;19.432;2023-07-31T13:09:28;3.60;;;2.20;;
66741;SDS011;53654;54.152;19.432;2023-07-31T13:11:56;4.00;;;2.60;;
66741;SDS011;53654;54.152;19.432;2023-07-31T13:14:24;3.90;;;2.40;;
66741;SDS011;53654;54.152;19.432;2023-07-31T13:16:52;3.80;;;2.40;;
66741;SDS011;53654;54.152;19.432;2023-07-31T13:19:20;3.60;;;2.50;;
66741;SDS011;53654;54.152;19.432;2023-07-31T13:21:48;3.10;;;2.50;;
66741;SDS011;53654;54.152;19.432;2023-07-31T13:24:17;4.60;;;2.70;;
66741;SDS011;53654;54.152;19.432;2023-07-31T13:26:45;4.80;;;4.40;;
66741;SDS011;53654;54.152;19.432;2023-07-31T13:29:13;4.50;;;2.50;;
66741;SDS011;53654;54.152;19.432;2023-07-31T13:31:41;3.80;;;2.90;;
66741;SDS011;53654;54.152;19.432;2023-07-31T13:34:09;4.10;;;2.50;;
66741;SDS011;53654;54.152;19.432;2023-07-31T13:36:37;4.60;;;2.60;;
66741;SDS011;53654;54.152;19.432;2023-07-31T13:39:06;5.00;;;2.60;;
66741;SDS011;53654;54.152;19.432;2023-07-31T13:41:34;3.30;;;2.30;;
66741;SDS011;53654;54.152;19.432;2023-07-31T13:44:02;3.60;;;2.10;;
66741;SDS011;53654;54.152;19.432;2023-07-31T13:46:30;4.60;;;2.70;;
66741;SDS011;53654;54.152;19.432;2023-07-31T13:49:00;5.20;;;3.00;;
66741;SDS011;53654;54.152;19.432;2023-07-31T13:51:29;4.20;;;2.70;;
66741;SDS011;53654;54.152;19.432;2023-07-31T13:53:57;4.60;;;2.90;;
66741;SDS011;53654;54.152;19.432;2023-07-31T13:56:26;5.30;;;3.00;;
66741;SDS011;53654;54.152;19.432;2023-07-31T13:58:54;4.80;;;2.70;;
66741;SDS011;53654;54.152;19.432;2023-07-31T14:01:22;5.00;;;2.60;;
66741;SDS011;53654;54.152;19.432;2023-07-31T14:03:50;6.30;;;2.70;;
66741;SDS011;53654;54.152;19.432;2023-07-31T14:06:19;4.60;;;2.60;;
66741;SDS011;53654;54.152;19.432;2023-07-31T14:08:47;3.70;;;2.50;;
66741;SDS011;53654;54.152;19.432;2023-07-31T14:11:15;4.20;;;2.80;;
66741;SDS011;53654;54.152;19.432;2023-07-31T14:13:43;4.80;;;2.50;;
66741;SDS011;53654;54.152;19.432;2023-07-31T14:16:11;4.00;;;2.70;;
66741;SDS011;53654;54.152;19.432;2023-07-31T14:18:40;3.90;;;2.60;;
66741;SDS011;53654;54.152;19.432;2023-07-31T14:21:08;4.50;;;2.60;;
66741;SDS011;53654;54.152;19.432;2023-07-31T14:23:37;3.80;;;2.50;;
66741;SDS011;53654;54.152;19.432;2023-07-31T14:26:05;3.20;;;2.10;;
66741;SDS011;53654;54.152;19.432;2023-07-31T14:28:33;2.60;;;2.10;;
66741;SDS011;53654;54.152;19.432;2023-07-31T14:31:02;4.00;;;2.40;;
66741;SDS011;53654;54.152;19.432;2023-07-31T14:33:30;3.80;;;2.20;;
66741;SDS011;53654;54.152;19.432;2023-07-31T14:35:58;3.10;;;2.20;;
66741;SDS011;53654;54.152;19.432;2023-07-31T14:38:27;3.20;;;2.00;;
66741;SDS011;53654;54.152;19.432;2023-07-31T14:40:55;3.40;;;2.30;;
66741;SDS011;53654;54.152;19.432;2023-07-31T14:43:23;3.50;;;2.30;;
66741;SDS011;53654;54.152;19.432;2023-07-31T14:45:51;4.90;;;2.40;;
66741;SDS011;53654;54.152;19.432;2023-07-31T14:48:21;3.40;;;2.80;;
66741;SDS011;53654;54.152;19.432;2023-07-31T14:50:49;4.00;;;2.90;;
66741;SDS011;53654;54.152;19.432;2023-07-31T14:53:17;3.50;;;3.20;;
66741;SDS011;53654;54.152;19.432;2023-07-31T14:55:45;3.90;;;3.40;;
66741;SDS011;53654;54.152;19.432;2023-07-31T14:58:13;4.00;;;3.20;;
66741;SDS011;53654;54.152;19.432;2023-07-31T15:00:42;3.50;;;3.20;;
66741;SDS011;53654;54.152;19.432;2023-07-31T15:03:10;3.90;;;3.50;;
66741;SDS011;53654;54.152;19.432;2023-07-31T15:05:38;5.20;;;3.80;;